createdAt,value
2018-01-26T00:01:13.141Z,101074.36
2018-01-26T00:03:40.726Z,101071.17
2018-01-26T00:06:08.258Z,101071.61
2018-01-26T00:08:35.773Z,101075.04
2018-01-26T00:11:03.318Z,101079.92
2018-01-26T00:13:30.866Z,101072.25
2018-01-26T00:15:58.426Z,101073.94
2018-01-26T00:18:25.952Z,101078.99
2018-01-26T00:20:53.474Z,101077.57
2018-01-26T00:23:21.059Z,101078.62
2018-01-26T00:25:48.615Z,101079.45
2018-01-26T00:28:16.172Z,101076.55
2018-01-26T00:33:46.360Z,101076.08
2018-01-26T00:36:13.867Z,101075.45
2018-01-26T00:38:41.381Z,101075.53
2018-01-26T00:41:08.904Z,101074.98
2018-01-26T00:43:36.430Z,101067.63
2018-01-26T00:46:03.944Z,101067.22
2018-01-26T00:48:31.465Z,101065.06
2018-01-26T00:50:58.991Z,101059.80
2018-01-26T00:53:26.508Z,101057.02
2018-01-26T00:55:54.038Z,101062.67
2018-01-26T00:58:21.569Z,101062.85
2018-01-26T01:00:49.089Z,101057.48
2018-01-26T01:03:16.619Z,101051.38
2018-01-26T01:05:44.129Z,101050.73
2018-01-26T01:08:11.641Z,101051.75
2018-01-26T01:10:42.816Z,101044.16
2018-01-26T01:13:10.344Z,101050.80
2018-01-26T01:15:38.762Z,101049.92
2018-01-26T01:18:06.277Z,101052.56
2018-01-26T01:20:33.802Z,101046.70
2018-01-26T01:23:01.318Z,101046.70
2018-01-26T01:25:28.853Z,101041.98
2018-01-26T01:27:56.383Z,101054.05
2018-01-26T01:30:23.902Z,101049.92
2018-01-26T01:32:51.424Z,101045.97
2018-01-26T01:35:18.928Z,101045.32
2018-01-26T01:37:46.454Z,101040.44
2018-01-26T01:40:13.968Z,101044.36
2018-01-26T01:42:41.481Z,101043.92
2018-01-26T01:45:08.998Z,101047.47
2018-01-26T01:47:36.517Z,101046.25
2018-01-26T01:50:04.050Z,101041.63
2018-01-26T01:52:31.561Z,101045.87
2018-01-26T01:54:59.077Z,101037.93
2018-01-26T01:57:26.593Z,101040.14
2018-01-26T01:59:54.109Z,101045.23
2018-01-26T02:02:21.631Z,101049.16
2018-01-26T02:04:49.140Z,101046.92
2018-01-26T02:07:16.659Z,101038.44
2018-01-26T02:09:44.183Z,101052.19
2018-01-26T02:12:11.701Z,101041.36
2018-01-26T02:14:39.228Z,101044.13
2018-01-26T02:17:06.737Z,101041.53
2018-01-26T02:19:34.257Z,101045.75
2018-01-26T02:22:01.767Z,101046.58
2018-01-26T02:24:46.752Z,101041.23
2018-01-26T02:27:14.270Z,101038.78
2018-01-26T02:29:41.820Z,101036.98
2018-01-26T02:32:09.339Z,101034.14
2018-01-26T02:34:36.845Z,101034.14
2018-01-26T02:37:04.369Z,101031.03
2018-01-26T02:39:31.881Z,101024.95
2018-01-26T02:41:59.444Z,101027.33
2018-01-26T02:44:26.953Z,101025.88
2018-01-26T02:46:54.483Z,101024.25
2018-01-26T02:49:22.014Z,101024.39
2018-01-26T02:51:49.534Z,101024.77
2018-01-26T02:54:17.057Z,101020.70
2018-01-26T02:56:44.581Z,101016.81
2018-01-26T02:59:12.105Z,101022.47
2018-01-26T03:01:39.625Z,101021.41
2018-01-26T03:04:07.143Z,101017.70
2018-01-26T03:06:34.661Z,101013.03
2018-01-26T03:09:02.178Z,101019.39
2018-01-26T03:11:29.950Z,101020.64
2018-01-26T03:13:57.474Z,101011.93
2018-01-26T03:16:24.985Z,101014.23
2018-01-26T03:18:52.525Z,101012.08
2018-01-26T03:21:20.046Z,101018.02
2018-01-26T03:23:47.574Z,101016.50
2018-01-26T03:26:15.088Z,101021.14
2018-01-26T03:28:42.622Z,101024.90
2018-01-26T03:31:10.155Z,101020.02
2018-01-26T03:33:37.674Z,101015.23
2018-01-26T03:36:05.210Z,101014.37
2018-01-26T03:38:32.740Z,101014.86
2018-01-26T03:41:00.264Z,101010.30
2018-01-26T03:43:27.786Z,101009.40
2018-01-26T03:45:55.298Z,101005.33
2018-01-26T03:48:22.814Z,101011.91
2018-01-26T03:50:50.334Z,101018.20
2018-01-26T03:53:17.853Z,101015.53
2018-01-26T03:55:45.373Z,101017.06
2018-01-26T03:58:12.893Z,101016.81
2018-01-26T04:00:40.406Z,101018.59
2018-01-26T04:03:07.927Z,101014.55
2018-01-26T04:05:35.472Z,101021.59
2018-01-26T04:08:02.997Z,101021.92
2018-01-26T04:10:30.513Z,101025.20
2018-01-26T04:12:58.037Z,101017.04
2018-01-26T04:15:25.557Z,101024.33
2018-01-26T04:17:53.068Z,101022.61
2018-01-26T04:20:20.588Z,101026.34
2018-01-26T04:22:48.122Z,101027.52
2018-01-26T04:25:15.652Z,101032.48
2018-01-26T04:27:43.169Z,101031.48
2018-01-26T04:30:10.697Z,101033.77
2018-01-26T04:32:38.217Z,101031.23
2018-01-26T04:35:05.735Z,101035.09
2018-01-26T04:37:33.258Z,101033.37
2018-01-26T04:40:00.788Z,101033.37
2018-01-26T04:42:28.300Z,101033.81
2018-01-26T04:44:55.816Z,101034.72
2018-01-26T04:47:23.333Z,101035.42
2018-01-26T04:49:50.853Z,101035.97
2018-01-26T04:52:18.380Z,101039.02
2018-01-26T04:54:45.892Z,101040.59
2018-01-26T04:57:13.421Z,101041.05
2018-01-26T04:59:40.942Z,101034.17
2018-01-26T05:02:08.473Z,101038.05
2018-01-26T05:04:36.004Z,101042.84
2018-01-26T05:07:03.518Z,101044.19
2018-01-26T05:09:31.046Z,101048.14
2018-01-26T05:11:58.568Z,101047.70
2018-01-26T05:14:26.094Z,101048.05
2018-01-26T05:16:53.613Z,101051.43
2018-01-26T05:19:21.133Z,101052.59
2018-01-26T05:21:48.682Z,101056.84
2018-01-26T05:24:16.209Z,101053.34
2018-01-26T05:26:43.732Z,101059.78
2018-01-26T05:29:11.264Z,101056.38
2018-01-26T05:31:38.793Z,101059.12
2018-01-26T05:34:06.315Z,101064.83
2018-01-26T05:36:33.840Z,101064.32
2018-01-26T05:39:01.370Z,101067.53
2018-01-26T05:41:28.889Z,101074.55
2018-01-26T05:43:56.405Z,101076.39
2018-01-26T05:46:23.933Z,101070.45
2018-01-26T05:48:51.455Z,101073.78
2018-01-26T05:51:18.973Z,101078.78
2018-01-26T05:53:46.495Z,101075.24
2018-01-26T05:56:14.019Z,101075.14
2018-01-26T05:58:41.552Z,101080.90
2018-01-26T06:01:09.068Z,101085.89
2018-01-26T06:03:36.590Z,101086.52
2018-01-26T06:06:04.143Z,101091.78
2018-01-26T06:08:31.666Z,101087.05
2018-01-26T06:10:59.205Z,101098.59
2018-01-26T06:13:26.721Z,101092.05
2018-01-26T06:15:54.256Z,101096.30
2018-01-26T06:18:21.781Z,101090.28
2018-01-26T06:20:49.304Z,101091.02
2018-01-26T06:23:16.826Z,101087.86
2018-01-26T06:25:44.354Z,101097.48
2018-01-26T06:28:11.933Z,101079.83
2018-01-26T06:30:39.438Z,101085.25
2018-01-26T06:33:06.961Z,101084.22
2018-01-26T06:35:34.477Z,101084.47
2018-01-26T06:38:01.994Z,101093.42
2018-01-26T06:40:29.512Z,101079.48
2018-01-26T06:42:57.033Z,101078.59
2018-01-26T06:45:24.562Z,101087.46
2018-01-26T06:47:52.104Z,101086.10
2018-01-26T06:50:19.619Z,101088.75
2018-01-26T06:52:47.133Z,101089.67
2018-01-26T06:55:14.667Z,101092.59
2018-01-26T06:57:42.189Z,101095.45
2018-01-26T07:00:09.713Z,101097.53
2018-01-26T07:02:37.232Z,101095.22
2018-01-26T07:05:04.749Z,101102.80
2018-01-26T07:07:32.265Z,101108.95
2018-01-26T07:09:59.790Z,101107.11
2018-01-26T07:12:27.321Z,101106.67
2018-01-26T07:14:54.848Z,101123.20
2018-01-26T07:17:22.412Z,101123.20
2018-01-26T07:19:49.945Z,101122.20
2018-01-26T07:22:17.475Z,101121.41
2018-01-26T07:24:45.006Z,101120.31
2018-01-26T07:27:12.540Z,101124.36
2018-01-26T07:29:40.065Z,101129.61
2018-01-26T07:32:07.585Z,101137.66
2018-01-26T07:34:35.117Z,101140.80
2018-01-26T07:37:02.662Z,101143.42
2018-01-26T07:39:30.190Z,101141.14
2018-01-26T07:41:57.798Z,101135.00
2018-01-26T07:44:25.388Z,101141.38
2018-01-26T07:46:52.944Z,101136.82
2018-01-26T07:49:20.449Z,101143.95
2018-01-26T07:51:48.006Z,101144.44
2018-01-26T07:54:15.566Z,101146.45
2018-01-26T07:56:43.085Z,101152.67
2018-01-26T07:59:10.609Z,101155.86
2018-01-26T08:01:38.133Z,101147.80
2018-01-26T08:04:05.681Z,101148.30
2018-01-26T08:06:33.208Z,101142.75
2018-01-26T08:09:00.739Z,101157.30
2018-01-26T08:11:28.269Z,101157.48
2018-01-26T08:13:55.784Z,101153.91
2018-01-26T08:16:23.302Z,101154.45
2018-01-26T08:18:50.822Z,101156.98
2018-01-26T08:21:18.455Z,101157.84
2018-01-26T08:23:45.981Z,101162.52
2018-01-26T08:26:13.538Z,101164.88
2018-01-26T08:28:41.116Z,101167.03
2018-01-26T08:31:08.622Z,101176.34
2018-01-26T08:33:36.148Z,101175.34
2018-01-26T08:36:03.681Z,101175.47
2018-01-26T08:38:31.199Z,101173.52
2018-01-26T08:40:58.726Z,101174.36
2018-01-26T08:43:26.253Z,101171.12
2018-01-26T08:45:53.774Z,101167.27
2018-01-26T08:48:21.298Z,101174.80
2018-01-26T08:50:48.823Z,101180.02
2018-01-26T08:53:16.356Z,101179.55
2018-01-26T08:55:43.876Z,101184.08
2018-01-26T08:58:11.405Z,101182.00
2018-01-26T09:00:38.927Z,101179.34
2018-01-26T09:03:06.446Z,101182.04
2018-01-26T09:05:34.164Z,101183.45
2018-01-26T09:08:01.748Z,101189.33
2018-01-26T09:10:29.268Z,101199.78
2018-01-26T09:12:56.788Z,101210.37
2018-01-26T09:15:24.340Z,101216.77
2018-01-26T09:17:51.861Z,101214.53
2018-01-26T09:20:19.385Z,101222.16
2018-01-26T09:22:46.910Z,101227.83
2018-01-26T09:25:14.440Z,101229.61
2018-01-26T09:27:41.971Z,101229.38
2018-01-26T09:30:09.491Z,101230.23
2018-01-26T09:32:37.026Z,101228.78
2018-01-26T09:35:04.563Z,101231.91
2018-01-26T09:37:32.090Z,101234.07
2018-01-26T09:39:59.649Z,101244.09
2018-01-26T09:42:27.185Z,101245.74
2018-01-26T09:44:55.673Z,101245.52
2018-01-26T09:47:23.189Z,101248.01
2018-01-26T09:49:50.717Z,101247.75
2018-01-26T09:52:18.231Z,101251.52
2018-01-26T09:54:45.753Z,101249.70
2018-01-26T09:57:13.269Z,101244.72
2018-01-26T09:59:40.788Z,101244.22
2018-01-26T10:02:08.307Z,101249.55
2018-01-26T10:04:35.828Z,101255.30
2018-01-26T10:07:03.357Z,101253.25
2018-01-26T10:09:30.892Z,101259.87
2018-01-26T10:11:58.413Z,101260.04
2018-01-26T10:14:25.940Z,101254.24
2018-01-26T10:16:53.466Z,101263.55
2018-01-26T10:19:20.989Z,101269.30
2018-01-26T10:21:48.519Z,101268.86
2018-01-26T10:24:16.044Z,101272.33
2018-01-26T10:26:43.557Z,101272.84
2018-01-26T10:29:11.093Z,101280.48
2018-01-26T10:31:38.619Z,101289.74
2018-01-26T10:34:06.150Z,101288.39
2018-01-26T10:36:33.672Z,101295.28
2018-01-26T10:39:01.200Z,101303.56
2018-01-26T10:41:28.721Z,101301.34
2018-01-26T10:43:56.257Z,101303.91
2018-01-26T10:46:23.775Z,101304.52
2018-01-26T10:48:51.301Z,101306.69
2018-01-26T10:51:18.836Z,101300.90
2018-01-26T10:53:46.386Z,101301.87
2018-01-26T10:56:13.913Z,101303.59
2018-01-26T10:58:41.429Z,101305.89
2018-01-26T11:01:08.958Z,101305.30
2018-01-26T11:03:36.492Z,101304.65
2018-01-26T11:06:04.017Z,101306.19
2018-01-26T11:08:31.540Z,101315.24
2018-01-26T11:10:59.057Z,101307.03
2018-01-26T11:13:26.569Z,101315.33
2018-01-26T11:15:54.095Z,101309.91
2018-01-26T11:18:21.610Z,101320.98
2018-01-26T11:20:49.136Z,101319.42
2018-01-26T11:23:16.652Z,101325.40
2018-01-26T11:25:44.170Z,101320.73
2018-01-26T11:28:11.687Z,101328.03
2018-01-26T11:30:39.204Z,101327.42
2018-01-26T11:33:06.727Z,101326.48
2018-01-26T11:35:34.260Z,101332.19
2018-01-26T11:38:01.786Z,101326.19
2018-01-26T11:40:29.313Z,101331.49
2018-01-26T11:42:56.834Z,101331.23
2018-01-26T11:45:24.363Z,101335.48
2018-01-26T11:47:51.885Z,101337.20
2018-01-26T11:50:19.400Z,101336.33
2018-01-26T11:52:46.935Z,101327.91
2018-01-26T11:55:14.454Z,101327.34
2018-01-26T11:57:41.980Z,101334.18
2018-01-26T12:00:09.493Z,101332.75
2018-01-26T12:02:37.026Z,101333.92
2018-01-26T12:05:04.584Z,101337.47
2018-01-26T12:07:32.101Z,101341.21
2018-01-26T12:09:59.617Z,101346.22
2018-01-26T12:12:27.132Z,101350.12
2018-01-26T12:14:54.653Z,101351.17
2018-01-26T12:17:22.179Z,101356.27
2018-01-26T12:19:49.711Z,101355.38
2018-01-26T12:22:17.244Z,101353.38
2018-01-26T12:24:44.768Z,101359.48
2018-01-26T12:27:12.292Z,101367.25
2018-01-26T12:29:39.806Z,101367.20
2018-01-26T12:32:07.336Z,101364.45
2018-01-26T12:34:34.965Z,101365.52
2018-01-26T12:37:02.500Z,101369.52
2018-01-26T12:39:30.026Z,101370.53
2018-01-26T12:41:57.541Z,101372.84
2018-01-26T12:44:25.058Z,101382.07
2018-01-26T12:46:52.566Z,101385.72
2018-01-26T12:49:20.070Z,101386.83
2018-01-26T12:51:47.585Z,101401.24
2018-01-26T12:54:15.089Z,101404.29
2018-01-26T12:56:42.600Z,101405.35
2018-01-26T12:59:10.134Z,101403.98
2018-01-26T13:01:37.645Z,101407.94
2018-01-26T13:04:05.339Z,101418.58
2018-01-26T13:06:32.865Z,101415.62
2018-01-26T13:09:00.382Z,101415.09
2018-01-26T13:11:27.901Z,101422.38
2018-01-26T13:13:55.422Z,101419.56
2018-01-26T13:16:22.921Z,101416.13
2018-01-26T13:18:50.433Z,101418.64
2018-01-26T13:21:17.966Z,101418.20
2018-01-26T13:23:45.495Z,101419.52
2018-01-26T13:26:13.017Z,101417.81
2018-01-26T13:28:40.526Z,101426.34
2018-01-26T13:31:08.047Z,101427.61
2018-01-26T13:33:35.566Z,101435.61
2018-01-26T13:36:03.170Z,101435.67
2018-01-26T13:38:30.698Z,101445.81
2018-01-26T13:40:58.213Z,101442.64
2018-01-26T13:43:25.731Z,101448.64
2018-01-26T13:45:53.243Z,101450.69
2018-01-26T13:48:20.760Z,101452.20
2018-01-26T13:50:49.144Z,101459.80
2018-01-26T13:53:16.662Z,101462.06
2018-01-26T13:55:44.175Z,101465.48
2018-01-26T13:58:11.688Z,101462.44
2018-01-26T14:00:39.208Z,101469.52
2018-01-26T14:03:06.733Z,101475.77
2018-01-26T14:05:34.246Z,101485.08
2018-01-26T14:08:01.778Z,101489.45
2018-01-26T14:10:29.281Z,101489.36
2018-01-26T14:12:56.834Z,101496.06
2018-01-26T14:15:24.368Z,101496.65
2018-01-26T14:17:51.891Z,101501.72
2018-01-26T14:20:19.432Z,101505.81
2018-01-26T14:22:46.944Z,101509.83
2018-01-26T14:25:14.477Z,101512.50
2018-01-26T14:27:41.996Z,101530.02
2018-01-26T14:30:09.515Z,101528.13
2018-01-26T14:32:37.020Z,101533.39
2018-01-26T14:35:04.571Z,101542.06
2018-01-26T14:37:32.094Z,101546.11
2018-01-26T14:39:59.740Z,101543.46
2018-01-26T14:42:27.245Z,101543.91
2018-01-26T14:44:54.775Z,101548.18
2018-01-26T14:47:22.403Z,101556.45
2018-01-26T14:49:49.937Z,101553.02
2018-01-26T14:52:17.448Z,101558.58
2018-01-26T14:54:45.319Z,101554.86
2018-01-26T14:57:12.841Z,101558.97
2018-01-26T14:59:40.400Z,101560.16
2018-01-26T15:02:07.909Z,101558.09
2018-01-26T15:04:35.417Z,101558.42
2018-01-26T15:07:02.967Z,101563.91
2018-01-26T15:09:30.472Z,101566.95
2018-01-26T15:11:58.100Z,101570.55
2018-01-26T15:14:25.641Z,101566.47
2018-01-26T15:16:53.156Z,101575.58
2018-01-26T15:19:20.757Z,101581.27
2018-01-26T15:21:48.285Z,101580.85
2018-01-26T15:24:15.910Z,101592.52
2018-01-26T15:26:43.424Z,101593.34
2018-01-26T15:29:10.941Z,101599.65
2018-01-26T15:31:38.454Z,101599.52
2018-01-26T15:34:05.960Z,101603.14
2018-01-26T15:36:33.475Z,101599.40
2018-01-26T15:39:00.989Z,101607.42
2018-01-26T15:41:28.527Z,101610.09
2018-01-26T15:43:56.078Z,101615.34
2018-01-26T15:46:23.604Z,101619.91
2018-01-26T15:48:51.141Z,101614.12
2018-01-26T15:51:18.667Z,101620.00
2018-01-26T15:53:46.221Z,101615.53
2018-01-26T15:56:13.769Z,101617.79
2018-01-26T15:58:41.293Z,101616.56
2018-01-26T16:01:08.821Z,101614.27
2018-01-26T16:03:36.340Z,101606.69
2018-01-26T16:06:03.858Z,101609.81
2018-01-26T16:08:31.382Z,101612.03
2018-01-26T16:10:58.935Z,101616.56
2018-01-26T16:13:26.492Z,101621.47
2018-01-26T16:16:03.534Z,101624.55
2018-01-26T16:18:31.061Z,101643.78
2018-01-26T16:21:03.362Z,101651.34
2018-01-26T16:23:30.918Z,101651.78
2018-01-26T16:25:58.440Z,101661.55
2018-01-26T16:28:25.962Z,101656.25
2018-01-26T16:30:53.494Z,101663.84
2018-01-26T16:33:21.029Z,101664.45
2018-01-26T16:35:48.561Z,101671.16
2018-01-26T16:38:16.121Z,101671.66
2018-01-26T16:40:43.639Z,101684.11
2018-01-26T16:43:11.197Z,101693.45
2018-01-26T16:45:38.712Z,101693.88
2018-01-26T16:48:06.265Z,101688.11
2018-01-26T16:50:33.840Z,101689.09
2018-01-26T16:53:01.485Z,101700.77
2018-01-26T16:55:29.001Z,101694.08
2018-01-26T16:57:56.641Z,101704.24
2018-01-26T17:00:24.157Z,101696.21
2018-01-26T17:02:51.684Z,101700.24
2018-01-26T17:05:19.243Z,101700.30
2018-01-26T17:07:46.845Z,101713.53
2018-01-26T17:10:14.379Z,101710.98
2018-01-26T17:12:42.018Z,101719.11
2018-01-26T17:15:09.629Z,101721.74
2018-01-26T17:17:37.187Z,101718.61
2018-01-26T17:20:04.749Z,101725.30
2018-01-26T17:22:32.265Z,101731.53
2018-01-26T17:24:59.789Z,101737.88
2018-01-26T17:27:27.325Z,101742.17
2018-01-26T17:29:54.850Z,101745.34
2018-01-26T17:32:22.381Z,101746.27
2018-01-26T17:34:49.892Z,101750.20
2018-01-26T17:37:17.430Z,101752.03
2018-01-26T17:39:44.961Z,101753.42
2018-01-26T17:42:12.480Z,101766.32
2018-01-26T17:44:40.029Z,101765.86
2018-01-26T17:47:07.539Z,101769.09
2018-01-26T17:49:35.155Z,101774.41
2018-01-26T17:52:02.673Z,101779.25
2018-01-26T17:54:30.202Z,101784.61
2018-01-26T17:56:57.740Z,101789.51
2018-01-26T17:59:25.262Z,101788.95
2018-01-26T18:01:52.794Z,101789.91
2018-01-26T18:04:20.320Z,101795.23
2018-01-26T18:06:47.846Z,101796.94
2018-01-26T18:09:15.404Z,101798.73
2018-01-26T18:11:42.929Z,101809.34
2018-01-26T18:14:10.454Z,101807.53
2018-01-26T18:16:37.977Z,101810.26
2018-01-26T18:19:05.504Z,101818.80
2018-01-26T18:21:33.033Z,101825.88
2018-01-26T18:24:00.585Z,101825.93
2018-01-26T18:26:28.118Z,101824.16
2018-01-26T18:28:55.635Z,101821.48
2018-01-26T18:31:23.156Z,101827.28
2018-01-26T18:33:50.683Z,101830.05
2018-01-26T18:36:18.219Z,101834.95
2018-01-26T18:38:45.748Z,101834.95
2018-01-26T18:41:13.274Z,101842.54
2018-01-26T18:43:40.819Z,101842.05
2018-01-26T18:46:08.359Z,101846.01
2018-01-26T18:48:35.880Z,101842.58
2018-01-26T18:51:03.392Z,101843.03
2018-01-26T18:53:30.913Z,101843.94
2018-01-26T18:55:58.484Z,101852.80
2018-01-26T18:58:26.119Z,101852.34
2018-01-26T19:00:53.668Z,101857.24
2018-01-26T19:03:21.178Z,101858.11
2018-01-26T19:05:48.697Z,101862.05
2018-01-26T19:08:16.221Z,101865.56
2018-01-26T19:10:43.752Z,101869.09
2018-01-26T19:13:11.282Z,101878.45
2018-01-26T19:15:38.829Z,101877.97
2018-01-26T19:18:06.358Z,101874.89
2018-01-26T19:20:33.885Z,101878.45
2018-01-26T19:23:01.404Z,101882.08
2018-01-26T19:25:28.943Z,101879.45
2018-01-26T19:27:56.468Z,101882.67
2018-01-26T19:30:24.017Z,101880.81
2018-01-26T19:32:51.544Z,101877.77
2018-01-26T19:35:19.072Z,101879.94
2018-01-26T19:37:46.605Z,101880.44
2018-01-26T19:40:14.235Z,101880.45
2018-01-26T19:42:41.766Z,101888.48
2018-01-26T19:45:09.358Z,101902.23
2018-01-26T19:47:36.899Z,101900.47
2018-01-26T19:50:04.477Z,101900.09
2018-01-26T19:52:32.013Z,101911.11
2018-01-26T19:54:59.544Z,101911.11
2018-01-26T19:57:27.073Z,101913.36
2018-01-26T19:59:54.705Z,101909.37
2018-01-26T20:02:22.281Z,101915.98
2018-01-26T20:05:07.554Z,101915.50
2018-01-26T20:07:40.748Z,101907.85
2018-01-26T20:10:08.326Z,101917.30
2018-01-26T20:12:41.548Z,101921.36
2018-01-26T20:15:09.081Z,101920.02
2018-01-26T20:17:36.712Z,101921.39
2018-01-26T20:20:04.244Z,101922.25
2018-01-26T20:22:31.857Z,101930.23
2018-01-26T20:24:59.535Z,101929.33
2018-01-26T20:27:27.064Z,101935.61
2018-01-26T20:29:54.590Z,101937.73
2018-01-26T20:32:22.123Z,101943.51
2018-01-26T20:34:49.645Z,101947.94
2018-01-26T20:37:17.165Z,101948.39
2018-01-26T20:39:44.742Z,101956.91
2018-01-26T20:42:12.523Z,101967.11
2018-01-26T20:44:40.097Z,101963.95
2018-01-26T20:47:07.612Z,101967.05
2018-01-26T20:49:35.205Z,101963.98
2018-01-26T20:52:02.757Z,101968.52
2018-01-26T20:54:30.325Z,101972.06
2018-01-26T20:56:57.852Z,101968.97
2018-01-26T20:59:25.429Z,101974.73
2018-01-26T21:01:53.030Z,101975.98
2018-01-26T21:04:20.916Z,101970.66
2018-01-26T21:06:48.644Z,101981.30
2018-01-26T21:09:16.181Z,101987.13
2018-01-26T21:11:43.749Z,101979.98
2018-01-26T21:14:11.281Z,101981.87
2018-01-26T21:16:38.819Z,101989.46
2018-01-26T21:19:06.341Z,101995.63
2018-01-26T21:21:33.891Z,102000.05
2018-01-26T21:24:01.410Z,101997.85
2018-01-26T21:26:29.005Z,101998.34
2018-01-26T21:28:56.760Z,101999.72
2018-01-26T21:31:24.544Z,102011.28
2018-01-26T21:33:52.132Z,102010.44
2018-01-26T21:36:19.668Z,102007.31
2018-01-26T21:38:47.193Z,102002.87
2018-01-26T21:41:14.718Z,102008.17
2018-01-26T21:43:42.284Z,102005.48
2018-01-26T21:46:09.928Z,102016.14
2018-01-26T21:48:37.698Z,102024.60
2018-01-26T21:51:05.331Z,102025.94
2018-01-26T21:53:33.007Z,102026.37
2018-01-26T21:56:00.553Z,102029.48
2018-01-26T21:58:28.085Z,102033.89
2018-01-26T22:00:55.604Z,102034.40
2018-01-26T22:03:23.138Z,102045.54
2018-01-26T22:05:50.949Z,102044.19
2018-01-26T22:08:18.468Z,102047.36
2018-01-26T22:10:46.117Z,102043.80
2018-01-26T22:13:13.665Z,102046.91
2018-01-26T22:15:41.205Z,102057.55
2018-01-26T22:18:08.726Z,102062.88
2018-01-26T22:20:36.257Z,102072.30
2018-01-26T22:23:03.779Z,102068.70
2018-01-26T22:25:31.303Z,102077.22
2018-01-26T22:27:58.817Z,102077.71
2018-01-26T22:30:26.357Z,102075.47
2018-01-26T22:32:53.884Z,102074.58
2018-01-26T22:35:21.517Z,102080.84
2018-01-26T22:37:49.041Z,102087.00
2018-01-26T22:40:16.566Z,102087.87
2018-01-26T22:42:44.090Z,102087.84
2018-01-26T22:45:11.616Z,102089.23
2018-01-26T22:47:39.210Z,102096.81
2018-01-26T22:50:06.728Z,102097.74
2018-01-26T22:52:34.401Z,102095.45
2018-01-26T22:55:01.950Z,102107.02
2018-01-26T22:57:29.476Z,102113.22
2018-01-26T22:59:57.002Z,102113.72
2018-01-26T23:02:24.531Z,102121.29
2018-01-26T23:04:52.162Z,102116.41
2018-01-26T23:07:19.696Z,102112.89
2018-01-26T23:09:47.246Z,102127.51
2018-01-26T23:12:14.777Z,102132.39
2018-01-26T23:14:42.302Z,102139.56
2018-01-26T23:17:09.827Z,102133.78
2018-01-26T23:19:37.418Z,102143.09
2018-01-26T23:22:04.956Z,102142.59
2018-01-26T23:24:32.482Z,102142.59
2018-01-26T23:27:00.068Z,102141.27
2018-01-26T23:29:27.623Z,102148.37
2018-01-26T23:31:55.404Z,102142.98
2018-01-26T23:34:22.929Z,102150.98
2018-01-26T23:36:50.507Z,102153.26
2018-01-26T23:39:18.043Z,102150.11
2018-01-26T23:41:45.561Z,102156.84
2018-01-26T23:44:13.107Z,102153.70
2018-01-26T23:46:40.630Z,102154.59
2018-01-26T23:49:08.157Z,102160.44
2018-01-26T23:51:35.771Z,102161.73
2018-01-26T23:54:03.436Z,102163.50
2018-01-26T23:56:31.004Z,102173.27
2018-01-26T23:58:58.516Z,102178.59
